METAR Data
IDs: Format: Raw Decoded Include TAF

Data at: 0136 UTC 01 Nov 2020

KSIY 010053Z AUTO 20005KT 10SM CLR 18/01 A3018 RMK AO2 SLP231 T01830011 $